« 海空港 神戸空港 2011/1/20 fri | トップページ | 南の防人 那覇空港 2011/1/22 sat »

2011/01/22

ちゅら空 那覇空港 2011/1/22 sat

昨日、神戸から那覇に到着すると、格納庫の中にブルーの機体が見えた。週末の天候も気になるところだが、本日予定のリハーサル時は、眩しい朝日が輝いていた。

METAR ROAH 220100Z 03013KT 9999 SCT030 18/10 Q1021

20110121_roah_bi00

予定とおり、9時半からフライトが開始。

20110121_roah_bi01

民航機のトラフィクの間を縫ってレーストラックの航過飛行。

20110121_roah_bi02

ランナップの最後にスモークチェック

20110121_roah_bi03

4・2で上がって左旋回。編隊集合して前島に向かう。

トラフィックの間に、進入のタイミングを図る。

20110121_roah_bi04

20110121_roah_bi05

20110121_roah_bi06

20110121_roah_bi07

これ、見えにくいですが、レベルキューピッド。

20110121_roah_bi08

20110121_roah_bi09_2

20110121_roah_bi10

20110121_roah_bi11

20110121_roah_bi12

課目を終了して、着陸に向かうところ。イニシャルからブレイクするところで、再進入の指示で、再度入りなおしとなった。後続着陸機とのスペースが確保できなかった模様。失礼ながら、粋なファンサービスとなった。

20110121_roah_bi13

ブレイク直前。ここで左旋回しながら、編隊解散して着陸となる。

20110121_roah_bi14

ファイナルに進入した#1と後続の#2

20110121_roah_bi15

20110121_roah_bi16

20110121_roah_bi17_2

20110121_roah_bi18

20110121_roah_bi19

40分ほどで本日のリハーサルは終了。明日は好天となりますように。

|

« 海空港 神戸空港 2011/1/20 fri | トップページ | 南の防人 那覇空港 2011/1/22 sat »

BI」カテゴリの記事

那覇空港」カテゴリの記事

コメント

コメントを書く



(ウェブ上には掲載しません)


コメントは記事投稿者が公開するまで表示されません。



トラックバック


この記事へのトラックバック一覧です: ちゅら空 那覇空港 2011/1/22 sat:

« 海空港 神戸空港 2011/1/20 fri | トップページ | 南の防人 那覇空港 2011/1/22 sat »